sensor_id;sensor_type;location;lat;lon;timestamp;P1;durP1;ratioP1;P2;durP2;ratioP2
64716;SDS011;51146;50.274;19.000;2022-09-17T00:01:18;15.27;;;10.10;;
64716;SDS011;51146;50.274;19.000;2022-09-17T00:03:50;16.38;;;10.88;;
64716;SDS011;51146;50.274;19.000;2022-09-17T00:06:19;15.35;;;10.27;;
64716;SDS011;51146;50.274;19.000;2022-09-17T00:08:46;14.07;;;10.30;;
64716;SDS011;51146;50.274;19.000;2022-09-17T00:11:17;18.55;;;10.35;;
64716;SDS011;51146;50.274;19.000;2022-09-17T00:13:48;13.82;;;10.18;;
64716;SDS011;51146;50.274;19.000;2022-09-17T00:16:30;14.13;;;11.07;;
64716;SDS011;51146;50.274;19.000;2022-09-17T00:18:59;15.80;;;10.80;;
64716;SDS011;51146;50.274;19.000;2022-09-17T00:21:29;15.15;;;10.23;;
64716;SDS011;51146;50.274;19.000;2022-09-17T00:23:57;16.40;;;11.07;;
64716;SDS011;51146;50.274;19.000;2022-09-17T00:26:27;13.88;;;10.63;;
64716;SDS011;51146;50.274;19.000;2022-09-17T00:28:55;16.15;;;10.73;;
64716;SDS011;51146;50.274;19.000;2022-09-17T00:31:23;15.93;;;10.30;;
64716;SDS011;51146;50.274;19.000;2022-09-17T00:33:50;13.57;;;10.30;;
64716;SDS011;51146;50.274;19.000;2022-09-17T00:36:20;14.40;;;10.25;;
64716;SDS011;51146;50.274;19.000;2022-09-17T00:38:48;16.15;;;11.23;;
64716;SDS011;51146;50.274;19.000;2022-09-17T00:41:20;17.55;;;11.65;;
64716;SDS011;51146;50.274;19.000;2022-09-17T00:43:50;18.40;;;11.07;;
64716;SDS011;51146;50.274;19.000;2022-09-17T00:48:46;15.45;;;10.88;;
64716;SDS011;51146;50.274;19.000;2022-09-17T00:51:16;14.02;;;9.98;;
64716;SDS011;51146;50.274;19.000;2022-09-17T00:53:48;17.83;;;11.32;;
64716;SDS011;51146;50.274;19.000;2022-09-17T00:56:37;12.25;;;9.00;;
64716;SDS011;51146;50.274;19.000;2022-09-17T00:59:03;14.15;;;9.82;;
64716;SDS011;51146;50.274;19.000;2022-09-17T01:01:31;14.65;;;10.25;;
64716;SDS011;51146;50.274;19.000;2022-09-17T01:03:58;15.07;;;10.05;;
64716;SDS011;51146;50.274;19.000;2022-09-17T01:06:31;16.15;;;10.23;;
64716;SDS011;51146;50.274;19.000;2022-09-17T01:11:51;14.15;;;9.02;;
64716;SDS011;51146;50.274;19.000;2022-09-17T01:14:33;16.05;;;10.32;;
64716;SDS011;51146;50.274;19.000;2022-09-17T01:20:47;12.35;;;8.25;;
64716;SDS011;51146;50.274;19.000;2022-09-17T01:29:12;13.85;;;7.93;;
64716;SDS011;51146;50.274;19.000;2022-09-17T01:43:17;13.88;;;10.82;;
64716;SDS011;51146;50.274;19.000;2022-09-17T01:45:51;17.63;;;10.45;;
64716;SDS011;51146;50.274;19.000;2022-09-17T01:48:28;14.23;;;10.65;;
64716;SDS011;51146;50.274;19.000;2022-09-17T01:51:04;13.07;;;9.88;;
64716;SDS011;51146;50.274;19.000;2022-09-17T01:53:37;15.40;;;10.27;;
64716;SDS011;51146;50.274;19.000;2022-09-17T01:56:26;13.18;;;9.93;;
64716;SDS011;51146;50.274;19.000;2022-09-17T01:59:00;12.07;;;9.32;;
64716;SDS011;51146;50.274;19.000;2022-09-17T02:01:31;16.92;;;9.90;;
64716;SDS011;51146;50.274;19.000;2022-09-17T02:04:10;12.40;;;8.68;;
64716;SDS011;51146;50.274;19.000;2022-09-17T02:06:44;13.18;;;7.97;;
64716;SDS011;51146;50.274;19.000;2022-09-17T02:09:19;12.50;;;8.57;;
64716;SDS011;51146;50.274;19.000;2022-09-17T02:11:54;12.25;;;8.70;;
64716;SDS011;51146;50.274;19.000;2022-09-17T02:14:34;9.73;;;7.50;;
64716;SDS011;51146;50.274;19.000;2022-09-17T02:17:18;10.77;;;8.32;;
64716;SDS011;51146;50.274;19.000;2022-09-17T02:19:50;12.57;;;8.07;;
64716;SDS011;51146;50.274;19.000;2022-09-17T02:22:24;8.98;;;7.20;;
64716;SDS011;51146;50.274;19.000;2022-09-17T02:29:59;11.23;;;7.03;;
64716;SDS011;51146;50.274;19.000;2022-09-17T02:32:26;11.82;;;7.65;;
64716;SDS011;51146;50.274;19.000;2022-09-17T02:34:53;10.23;;;6.95;;
64716;SDS011;51146;50.274;19.000;2022-09-17T02:37:20;11.38;;;7.90;;
64716;SDS011;51146;50.274;19.000;2022-09-17T02:39:48;10.93;;;8.27;;
64716;SDS011;51146;50.274;19.000;2022-09-17T02:45:19;9.50;;;7.78;;
64716;SDS011;51146;50.274;19.000;2022-09-17T02:59:11;12.27;;;7.85;;
64716;SDS011;51146;50.274;19.000;2022-09-17T03:02:07;10.40;;;7.65;;
64716;SDS011;51146;50.274;19.000;2022-09-17T03:04:50;11.75;;;7.57;;
64716;SDS011;51146;50.274;19.000;2022-09-17T03:07:18;13.32;;;8.88;;
64716;SDS011;51146;50.274;19.000;2022-09-17T03:09:46;10.95;;;8.30;;
64716;SDS011;51146;50.274;19.000;2022-09-17T03:12:13;11.10;;;8.18;;
64716;SDS011;51146;50.274;19.000;2022-09-17T03:14:40;12.10;;;9.73;;
64716;SDS011;51146;50.274;19.000;2022-09-17T03:17:08;14.65;;;9.93;;
64716;SDS011;51146;50.274;19.000;2022-09-17T03:19:36;14.23;;;10.30;;
64716;SDS011;51146;50.274;19.000;2022-09-17T03:22:02;14.18;;;9.98;;
64716;SDS011;51146;50.274;19.000;2022-09-17T03:24:29;13.73;;;10.00;;
64716;SDS011;51146;50.274;19.000;2022-09-17T03:26:56;13.88;;;9.55;;
64716;SDS011;51146;50.274;19.000;2022-09-17T03:29:23;13.93;;;9.73;;
64716;SDS011;51146;50.274;19.000;2022-09-17T03:31:50;12.98;;;9.48;;
64716;SDS011;51146;50.274;19.000;2022-09-17T03:34:17;14.02;;;10.23;;
64716;SDS011;51146;50.274;19.000;2022-09-17T03:36:45;15.18;;;11.13;;
64716;SDS011;51146;50.274;19.000;2022-09-17T03:39:11;15.95;;;10.77;;
64716;SDS011;51146;50.274;19.000;2022-09-17T03:41:38;16.58;;;10.85;;
64716;SDS011;51146;50.274;19.000;2022-09-17T03:44:05;16.10;;;11.35;;
64716;SDS011;51146;50.274;19.000;2022-09-17T03:46:32;16.42;;;10.48;;
64716;SDS011;51146;50.274;19.000;2022-09-17T03:48:58;14.35;;;10.38;;
64716;SDS011;51146;50.274;19.000;2022-09-17T03:51:25;15.63;;;11.45;;
64716;SDS011;51146;50.274;19.000;2022-09-17T03:53:52;17.13;;;11.10;;
64716;SDS011;51146;50.274;19.000;2022-09-17T03:56:20;18.05;;;11.18;;
64716;SDS011;51146;50.274;19.000;2022-09-17T03:58:46;18.30;;;11.63;;
64716;SDS011;51146;50.274;19.000;2022-09-17T04:01:13;16.77;;;11.50;;
64716;SDS011;51146;50.274;19.000;2022-09-17T04:03:40;16.83;;;11.35;;
64716;SDS011;51146;50.274;19.000;2022-09-17T04:06:07;20.40;;;11.77;;
64716;SDS011;51146;50.274;19.000;2022-09-17T04:08:33;17.38;;;11.27;;
64716;SDS011;51146;50.274;19.000;2022-09-17T04:11:02;14.95;;;10.55;;
64716;SDS011;51146;50.274;19.000;2022-09-17T04:13:29;13.68;;;10.27;;
64716;SDS011;51146;50.274;19.000;2022-09-17T04:15:56;16.05;;;11.43;;
64716;SDS011;51146;50.274;19.000;2022-09-17T04:18:24;17.20;;;10.48;;
64716;SDS011;51146;50.274;19.000;2022-09-17T04:20:51;15.90;;;10.55;;
64716;SDS011;51146;50.274;19.000;2022-09-17T04:23:20;15.77;;;11.25;;
64716;SDS011;51146;50.274;19.000;2022-09-17T04:25:46;18.30;;;11.45;;
64716;SDS011;51146;50.274;19.000;2022-09-17T04:28:13;15.43;;;10.60;;
64716;SDS011;51146;50.274;19.000;2022-09-17T04:30:40;26.83;;;12.20;;
64716;SDS011;51146;50.274;19.000;2022-09-17T04:33:08;20.52;;;12.30;;
64716;SDS011;51146;50.274;19.000;2022-09-17T04:35:37;18.20;;;11.35;;
64716;SDS011;51146;50.274;19.000;2022-09-17T04:38:04;14.90;;;9.98;;
64716;SDS011;51146;50.274;19.000;2022-09-17T04:40:30;13.23;;;9.70;;
64716;SDS011;51146;50.274;19.000;2022-09-17T04:42:58;13.52;;;9.82;;
64716;SDS011;51146;50.274;19.000;2022-09-17T04:45:30;13.20;;;9.07;;
64716;SDS011;51146;50.274;19.000;2022-09-17T04:47:59;11.02;;;9.18;;
64716;SDS011;51146;50.274;19.000;2022-09-17T04:50:27;13.88;;;10.18;;
64716;SDS011;51146;50.274;19.000;2022-09-17T04:52:54;12.88;;;9.35;;
64716;SDS011;51146;50.274;19.000;2022-09-17T04:55:24;15.68;;;9.85;;
64716;SDS011;51146;50.274;19.000;2022-09-17T04:57:53;14.38;;;9.00;;
64716;SDS011;51146;50.274;19.000;2022-09-17T05:00:21;13.02;;;8.70;;
64716;SDS011;51146;50.274;19.000;2022-09-17T05:02:49;15.85;;;9.93;;
64716;SDS011;51146;50.274;19.000;2022-09-17T05:05:18;10.25;;;8.45;;
64716;SDS011;51146;50.274;19.000;2022-09-17T05:07:46;11.32;;;8.73;;
64716;SDS011;51146;50.274;19.000;2022-09-17T05:10:13;15.40;;;9.00;;
64716;SDS011;51146;50.274;19.000;2022-09-17T05:12:46;12.68;;;9.50;;
64716;SDS011;51146;50.274;19.000;2022-09-17T05:15:13;22.20;;;12.82;;
64716;SDS011;51146;50.274;19.000;2022-09-17T05:17:40;18.45;;;11.52;;
64716;SDS011;51146;50.274;19.000;2022-09-17T05:20:07;19.75;;;13.00;;
64716;SDS011;51146;50.274;19.000;2022-09-17T05:22:38;15.13;;;11.18;;
64716;SDS011;51146;50.274;19.000;2022-09-17T05:25:07;18.65;;;12.57;;
64716;SDS011;51146;50.274;19.000;2022-09-17T05:27:33;22.60;;;14.07;;
64716;SDS011;51146;50.274;19.000;2022-09-17T05:30:00;17.52;;;11.00;;
64716;SDS011;51146;50.274;19.000;2022-09-17T05:32:28;13.68;;;10.63;;
64716;SDS011;51146;50.274;19.000;2022-09-17T05:34:55;17.27;;;10.70;;
64716;SDS011;51146;50.274;19.000;2022-09-17T05:37:30;14.15;;;10.02;;
64716;SDS011;51146;50.274;19.000;2022-09-17T05:39:57;14.75;;;10.10;;
64716;SDS011;51146;50.274;19.000;2022-09-17T05:42:23;14.90;;;10.80;;
64716;SDS011;51146;50.274;19.000;2022-09-17T05:44:50;14.20;;;9.82;;
64716;SDS011;51146;50.274;19.000;2022-09-17T05:47:17;13.70;;;9.25;;
64716;SDS011;51146;50.274;19.000;2022-09-17T05:49:43;15.05;;;8.55;;
64716;SDS011;51146;50.274;19.000;2022-09-17T05:52:10;10.73;;;8.40;;
64716;SDS011;51146;50.274;19.000;2022-09-17T05:54:37;11.93;;;8.20;;
64716;SDS011;51146;50.274;19.000;2022-09-17T05:57:05;10.07;;;7.60;;
64716;SDS011;51146;50.274;19.000;2022-09-17T05:59:32;11.05;;;7.28;;
64716;SDS011;51146;50.274;19.000;2022-09-17T06:01:59;9.52;;;6.47;;
64716;SDS011;51146;50.274;19.000;2022-09-17T06:04:25;9.77;;;6.60;;
64716;SDS011;51146;50.274;19.000;2022-09-17T06:06:56;9.23;;;7.00;;
64716;SDS011;51146;50.274;19.000;2022-09-17T06:09:23;17.60;;;8.60;;
64716;SDS011;51146;50.274;19.000;2022-09-17T06:11:50;9.80;;;6.70;;
64716;SDS011;51146;50.274;19.000;2022-09-17T06:14:16;10.30;;;7.47;;
64716;SDS011;51146;50.274;19.000;2022-09-17T06:16:43;10.57;;;6.47;;
64716;SDS011;51146;50.274;19.000;2022-09-17T06:19:10;8.60;;;5.90;;
64716;SDS011;51146;50.274;19.000;2022-09-17T06:21:37;8.32;;;6.43;;
64716;SDS011;51146;50.274;19.000;2022-09-17T06:24:03;7.20;;;5.75;;
64716;SDS011;51146;50.274;19.000;2022-09-17T06:26:30;8.50;;;6.25;;
64716;SDS011;51146;50.274;19.000;2022-09-17T06:28:57;8.18;;;6.50;;
64716;SDS011;51146;50.274;19.000;2022-09-17T06:31:25;8.23;;;6.47;;
64716;SDS011;51146;50.274;19.000;2022-09-17T06:33:54;9.52;;;6.78;;
64716;SDS011;51146;50.274;19.000;2022-09-17T06:36:23;8.57;;;6.65;;
64716;SDS011;51146;50.274;19.000;2022-09-17T06:38:51;12.23;;;7.47;;
64716;SDS011;51146;50.274;19.000;2022-09-17T06:41:18;11.68;;;7.40;;
64716;SDS011;51146;50.274;19.000;2022-09-17T06:43:44;12.20;;;7.32;;
64716;SDS011;51146;50.274;19.000;2022-09-17T06:46:12;17.42;;;7.82;;
64716;SDS011;51146;50.274;19.000;2022-09-17T06:48:38;13.63;;;7.88;;
64716;SDS011;51146;50.274;19.000;2022-09-17T06:51:06;14.07;;;8.18;;
64716;SDS011;51146;50.274;19.000;2022-09-17T06:53:36;12.68;;;7.43;;
64716;SDS011;51146;50.274;19.000;2022-09-17T06:56:03;11.95;;;8.00;;
64716;SDS011;51146;50.274;19.000;2022-09-17T06:58:32;15.40;;;9.00;;
64716;SDS011;51146;50.274;19.000;2022-09-17T07:01:00;9.52;;;7.22;;
64716;SDS011;51146;50.274;19.000;2022-09-17T07:03:28;9.25;;;6.97;;
64716;SDS011;51146;50.274;19.000;2022-09-17T07:05:56;11.50;;;7.28;;
64716;SDS011;51146;50.274;19.000;2022-09-17T07:08:23;10.40;;;6.38;;
64716;SDS011;51146;50.274;19.000;2022-09-17T07:10:55;13.27;;;7.25;;
64716;SDS011;51146;50.274;19.000;2022-09-17T07:13:23;8.25;;;6.18;;
64716;SDS011;51146;50.274;19.000;2022-09-17T07:15:51;7.97;;;6.07;;
64716;SDS011;51146;50.274;19.000;2022-09-17T07:18:23;7.82;;;5.60;;
64716;SDS011;51146;50.274;19.000;2022-09-17T07:21:00;12.32;;;6.38;;
64716;SDS011;51146;50.274;19.000;2022-09-17T07:23:29;7.97;;;5.93;;
64716;SDS011;51146;50.274;19.000;2022-09-17T07:25:58;9.63;;;6.55;;
64716;SDS011;51146;50.274;19.000;2022-09-17T07:28:26;9.20;;;6.40;;
64716;SDS011;51146;50.274;19.000;2022-09-17T07:30:54;8.88;;;5.75;;
64716;SDS011;51146;50.274;19.000;2022-09-17T07:33:22;8.05;;;5.47;;
64716;SDS011;51146;50.274;19.000;2022-09-17T07:35:54;7.00;;;5.25;;
64716;SDS011;51146;50.274;19.000;2022-09-17T07:38:22;7.80;;;5.88;;
64716;SDS011;51146;50.274;19.000;2022-09-17T07:40:56;7.57;;;4.75;;
64716;SDS011;51146;50.274;19.000;2022-09-17T07:43:26;6.72;;;5.25;;
64716;SDS011;51146;50.274;19.000;2022-09-17T07:45:55;7.40;;;5.57;;
64716;SDS011;51146;50.274;19.000;2022-09-17T07:48:23;8.85;;;5.93;;
64716;SDS011;51146;50.274;19.000;2022-09-17T07:50:51;7.90;;;6.13;;
64716;SDS011;51146;50.274;19.000;2022-09-17T07:53:18;9.63;;;5.88;;
64716;SDS011;51146;50.274;19.000;2022-09-17T07:55:52;9.73;;;6.28;;
64716;SDS011;51146;50.274;19.000;2022-09-17T07:58:23;6.70;;;5.15;;
64716;SDS011;51146;50.274;19.000;2022-09-17T08:01:04;5.55;;;4.18;;
64716;SDS011;51146;50.274;19.000;2022-09-17T08:03:35;7.57;;;5.10;;
64716;SDS011;51146;50.274;19.000;2022-09-17T08:06:04;11.73;;;4.68;;
64716;SDS011;51146;50.274;19.000;2022-09-17T08:08:41;4.47;;;4.03;;
64716;SDS011;51146;50.274;19.000;2022-09-17T08:11:11;7.13;;;4.60;;
64716;SDS011;51146;50.274;19.000;2022-09-17T08:14:03;6.80;;;4.20;;
64716;SDS011;51146;50.274;19.000;2022-09-17T08:16:29;8.80;;;4.60;;
64716;SDS011;51146;50.274;19.000;2022-09-17T08:18:56;5.90;;;3.85;;
64716;SDS011;51146;50.274;19.000;2022-09-17T08:21:23;7.72;;;4.50;;
64716;SDS011;51146;50.274;19.000;2022-09-17T08:23:50;7.95;;;3.42;;
64716;SDS011;51146;50.274;19.000;2022-09-17T08:26:18;4.50;;;2.80;;
64716;SDS011;51146;50.274;19.000;2022-09-17T08:28:48;4.60;;;3.38;;
64716;SDS011;51146;50.274;19.000;2022-09-17T08:31:17;5.53;;;3.40;;
64716;SDS011;51146;50.274;19.000;2022-09-17T08:33:45;6.80;;;3.80;;
64716;SDS011;51146;50.274;19.000;2022-09-17T08:36:13;5.32;;;3.30;;
64716;SDS011;51146;50.274;19.000;2022-09-17T08:38:42;5.68;;;3.38;;
64716;SDS011;51146;50.274;19.000;2022-09-17T08:44:01;14.18;;;3.60;;
64716;SDS011;51146;50.274;19.000;2022-09-17T08:49:35;3.33;;;2.63;;
64716;SDS011;51146;50.274;19.000;2022-09-17T09:06:48;5.25;;;3.15;;
64716;SDS011;51146;50.274;19.000;2022-09-17T09:09:38;6.25;;;2.80;;
64716;SDS011;51146;50.274;19.000;2022-09-17T09:12:17;4.30;;;3.33;;
64716;SDS011;51146;50.274;19.000;2022-09-17T09:17:36;8.45;;;3.40;;
64716;SDS011;51146;50.274;19.000;2022-09-17T09:20:15;4.30;;;3.13;;
64716;SDS011;51146;50.274;19.000;2022-09-17T09:22:55;4.00;;;3.20;;
64716;SDS011;51146;50.274;19.000;2022-09-17T09:25:29;4.50;;;3.15;;
64716;SDS011;51146;50.274;19.000;2022-09-17T09:31:38;7.50;;;3.45;;
64716;SDS011;51146;50.274;19.000;2022-09-17T09:33:49;9.43;;;3.30;;
64716;SDS011;51146;50.274;19.000;2022-09-17T09:36:17;3.35;;;3.03;;
64716;SDS011;51146;50.274;19.000;2022-09-17T09:38:54;4.88;;;2.97;;
64716;SDS011;51146;50.274;19.000;2022-09-17T09:44:09;5.15;;;3.22;;
64716;SDS011;51146;50.274;19.000;2022-09-17T09:57:13;6.45;;;4.15;;
64716;SDS011;51146;50.274;19.000;2022-09-17T09:59:43;5.93;;;4.43;;
64716;SDS011;51146;50.274;19.000;2022-09-17T10:02:10;9.63;;;5.03;;
64716;SDS011;51146;50.274;19.000;2022-09-17T10:04:37;5.70;;;3.90;;
64716;SDS011;51146;50.274;19.000;2022-09-17T10:07:05;8.15;;;4.20;;
64716;SDS011;51146;50.274;19.000;2022-09-17T10:41:54;6.47;;;5.22;;
64716;SDS011;51146;50.274;19.000;2022-09-17T10:44:35;8.93;;;4.80;;
64716;SDS011;51146;50.274;19.000;2022-09-17T10:49:38;6.47;;;4.55;;
64716;SDS011;51146;50.274;19.000;2022-09-17T10:52:10;8.43;;;5.87;;
64716;SDS011;51146;50.274;19.000;2022-09-17T11:00:20;5.82;;;4.20;;
64716;SDS011;51146;50.274;19.000;2022-09-17T11:08:24;5.90;;;4.18;;
64716;SDS011;51146;50.274;19.000;2022-09-17T11:11:07;8.35;;;4.97;;
64716;SDS011;51146;50.274;19.000;2022-09-17T11:13:39;8.73;;;4.40;;
64716;SDS011;51146;50.274;19.000;2022-09-17T11:16:53;5.50;;;3.80;;
64716;SDS011;51146;50.274;19.000;2022-09-17T11:22:48;4.97;;;4.47;;
64716;SDS011;51146;50.274;19.000;2022-09-17T11:25:59;6.47;;;5.07;;
64716;SDS011;51146;50.274;19.000;2022-09-17T11:31:54;6.22;;;4.53;;
64716;SDS011;51146;50.274;19.000;2022-09-17T11:35:10;5.53;;;4.07;;
64716;SDS011;51146;50.274;19.000;2022-09-17T11:40:21;7.50;;;4.85;;
64716;SDS011;51146;50.274;19.000;2022-09-17T11:45:26;7.65;;;6.13;;
64716;SDS011;51146;50.274;19.000;2022-09-17T11:48:11;6.47;;;4.88;;
64716;SDS011;51146;50.274;19.000;2022-09-17T11:50:43;7.68;;;5.57;;
64716;SDS011;51146;50.274;19.000;2022-09-17T11:53:18;8.38;;;6.22;;
64716;SDS011;51146;50.274;19.000;2022-09-17T12:01:16;7.20;;;5.40;;
64716;SDS011;51146;50.274;19.000;2022-09-17T12:04:00;9.55;;;6.03;;
64716;SDS011;51146;50.274;19.000;2022-09-17T12:06:48;7.07;;;5.60;;
64716;SDS011;51146;50.274;19.000;2022-09-17T12:09:24;7.82;;;5.90;;
64716;SDS011;51146;50.274;19.000;2022-09-17T12:12:07;7.63;;;5.93;;
64716;SDS011;51146;50.274;19.000;2022-09-17T12:15:05;8.70;;;5.70;;
64716;SDS011;51146;50.274;19.000;2022-09-17T12:20:17;6.78;;;5.47;;
64716;SDS011;51146;50.274;19.000;2022-09-17T12:22:56;9.52;;;6.05;;
64716;SDS011;51146;50.274;19.000;2022-09-17T12:25:26;9.10;;;5.88;;
64716;SDS011;51146;50.274;19.000;2022-09-17T12:28:03;7.63;;;6.25;;
64716;SDS011;51146;50.274;19.000;2022-09-17T12:30:39;8.75;;;5.53;;
64716;SDS011;51146;50.274;19.000;2022-09-17T12:33:18;9.43;;;6.45;;
64716;SDS011;51146;50.274;19.000;2022-09-17T12:36:18;9.30;;;7.35;;
64716;SDS011;51146;50.274;19.000;2022-09-17T12:59:04;9.02;;;5.20;;
64716;SDS011;51146;50.274;19.000;2022-09-17T13:07:32;7.20;;;4.25;;
64716;SDS011;51146;50.274;19.000;2022-09-17T13:19:04;6.78;;;4.53;;
64716;SDS011;51146;50.274;19.000;2022-09-17T13:24:41;7.18;;;3.97;;
64716;SDS011;51146;50.274;19.000;2022-09-17T13:27:22;7.30;;;5.97;;
64716;SDS011;51146;50.274;19.000;2022-09-17T13:37:57;8.38;;;4.65;;
64716;SDS011;51146;50.274;19.000;2022-09-17T13:40:26;5.72;;;4.05;;
64716;SDS011;51146;50.274;19.000;2022-09-17T13:45:31;26.08;;;5.35;;
64716;SDS011;51146;50.274;19.000;2022-09-17T13:50:38;6.38;;;4.30;;
64716;SDS011;51146;50.274;19.000;2022-09-17T13:58:11;5.63;;;3.92;;
64716;SDS011;51146;50.274;19.000;2022-09-17T14:05:56;4.38;;;3.97;;
64716;SDS011;51146;50.274;19.000;2022-09-17T14:21:41;6.80;;;4.72;;
64716;SDS011;51146;50.274;19.000;2022-09-17T14:24:18;8.50;;;5.90;;
64716;SDS011;51146;50.274;19.000;2022-09-17T14:32:25;9.13;;;6.88;;
64716;SDS011;51146;50.274;19.000;2022-09-17T14:35:00;7.10;;;5.05;;
64716;SDS011;51146;50.274;19.000;2022-09-17T14:37:29;11.18;;;7.97;;
64716;SDS011;51146;50.274;19.000;2022-09-17T14:39:58;8.05;;;4.15;;
64716;SDS011;51146;50.274;19.000;2022-09-17T14:42:27;31.95;;;17.40;;
64716;SDS011;51146;50.274;19.000;2022-09-17T14:45:02;8.95;;;5.35;;
64716;SDS011;51146;50.274;19.000;2022-09-17T14:47:36;5.95;;;4.45;;
64716;SDS011;51146;50.274;19.000;2022-09-17T14:52:54;10.90;;;6.18;;
64716;SDS011;51146;50.274;19.000;2022-09-17T14:55:22;8.35;;;6.50;;
64716;SDS011;51146;50.274;19.000;2022-09-17T14:57:56;8.63;;;6.80;;
64716;SDS011;51146;50.274;19.000;2022-09-17T15:00:36;8.93;;;6.50;;
64716;SDS011;51146;50.274;19.000;2022-09-17T15:03:04;6.47;;;5.82;;
64716;SDS011;51146;50.274;19.000;2022-09-17T15:05:32;8.38;;;6.93;;
64716;SDS011;51146;50.274;19.000;2022-09-17T15:10:43;21.83;;;13.45;;
64716;SDS011;51146;50.274;19.000;2022-09-17T15:13:11;6.57;;;5.85;;
64716;SDS011;51146;50.274;19.000;2022-09-17T15:15:44;7.10;;;5.45;;
64716;SDS011;51146;50.274;19.000;2022-09-17T15:18:17;12.25;;;6.95;;
64716;SDS011;51146;50.274;19.000;2022-09-17T15:20:45;9.10;;;6.68;;
64716;SDS011;51146;50.274;19.000;2022-09-17T15:23:17;7.10;;;5.68;;
64716;SDS011;51146;50.274;19.000;2022-09-17T15:25:50;5.82;;;5.22;;
64716;SDS011;51146;50.274;19.000;2022-09-17T15:30:59;7.00;;;6.00;;
64716;SDS011;51146;50.274;19.000;2022-09-17T15:33:27;10.07;;;7.15;;
64716;SDS011;51146;50.274;19.000;2022-09-17T15:36:00;9.68;;;6.75;;
64716;SDS011;51146;50.274;19.000;2022-09-17T15:38:48;15.77;;;10.30;;
64716;SDS011;51146;50.274;19.000;2022-09-17T15:41:22;15.70;;;9.70;;
64716;SDS011;51146;50.274;19.000;2022-09-17T15:43:49;13.45;;;9.15;;
64716;SDS011;51146;50.274;19.000;2022-09-17T15:46:26;15.23;;;8.00;;
64716;SDS011;51146;50.274;19.000;2022-09-17T15:49:01;15.88;;;9.75;;
64716;SDS011;51146;50.274;19.000;2022-09-17T15:53:58;12.52;;;10.00;;
64716;SDS011;51146;50.274;19.000;2022-09-17T15:56:30;15.82;;;10.68;;
64716;SDS011;51146;50.274;19.000;2022-09-17T15:59:02;12.35;;;9.45;;
64716;SDS011;51146;50.274;19.000;2022-09-17T16:01:51;13.65;;;8.50;;
64716;SDS011;51146;50.274;19.000;2022-09-17T16:04:22;16.45;;;8.38;;
64716;SDS011;51146;50.274;19.000;2022-09-17T16:06:55;25.48;;;15.85;;
64716;SDS011;51146;50.274;19.000;2022-09-17T16:09:35;22.90;;;17.08;;
64716;SDS011;51146;50.274;19.000;2022-09-17T16:12:06;19.83;;;15.77;;
64716;SDS011;51146;50.274;19.000;2022-09-17T16:14:34;14.48;;;10.93;;
64716;SDS011;51146;50.274;19.000;2022-09-17T16:19:56;14.20;;;10.27;;
64716;SDS011;51146;50.274;19.000;2022-09-17T16:22:27;15.88;;;9.48;;
64716;SDS011;51146;50.274;19.000;2022-09-17T16:24:54;12.73;;;10.02;;
64716;SDS011;51146;50.274;19.000;2022-09-17T16:27:25;13.20;;;9.63;;
64716;SDS011;51146;50.274;19.000;2022-09-17T16:29:59;11.55;;;8.95;;
64716;SDS011;51146;50.274;19.000;2022-09-17T16:32:31;11.85;;;9.18;;
64716;SDS011;51146;50.274;19.000;2022-09-17T16:34:58;14.60;;;9.15;;
64716;SDS011;51146;50.274;19.000;2022-09-17T16:37:25;15.88;;;9.77;;
64716;SDS011;51146;50.274;19.000;2022-09-17T16:39:52;11.15;;;9.77;;
64716;SDS011;51146;50.274;19.000;2022-09-17T16:42:19;12.38;;;8.88;;
64716;SDS011;51146;50.274;19.000;2022-09-17T16:44:46;12.55;;;9.30;;
64716;SDS011;51146;50.274;19.000;2022-09-17T16:47:14;13.40;;;9.57;;
64716;SDS011;51146;50.274;19.000;2022-09-17T16:49:40;15.40;;;10.80;;
64716;SDS011;51146;50.274;19.000;2022-09-17T16:52:07;15.15;;;10.38;;
64716;SDS011;51146;50.274;19.000;2022-09-17T16:54:34;12.75;;;10.27;;
64716;SDS011;51146;50.274;19.000;2022-09-17T16:57:01;22.75;;;15.63;;
64716;SDS011;51146;50.274;19.000;2022-09-17T16:59:27;15.98;;;10.20;;
64716;SDS011;51146;50.274;19.000;2022-09-17T17:01:54;13.75;;;10.85;;
64716;SDS011;51146;50.274;19.000;2022-09-17T17:04:21;15.90;;;11.38;;
64716;SDS011;51146;50.274;19.000;2022-09-17T17:06:48;20.20;;;12.00;;
64716;SDS011;51146;50.274;19.000;2022-09-17T17:09:15;20.80;;;13.88;;
64716;SDS011;51146;50.274;19.000;2022-09-17T17:11:41;14.90;;;10.45;;
64716;SDS011;51146;50.274;19.000;2022-09-17T17:14:08;20.48;;;12.43;;
64716;SDS011;51146;50.274;19.000;2022-09-17T17:16:39;19.95;;;13.95;;
64716;SDS011;51146;50.274;19.000;2022-09-17T17:19:10;18.53;;;12.50;;
64716;SDS011;51146;50.274;19.000;2022-09-17T17:21:36;21.55;;;13.50;;
64716;SDS011;51146;50.274;19.000;2022-09-17T17:24:08;15.82;;;10.07;;
64716;SDS011;51146;50.274;19.000;2022-09-17T17:26:37;18.85;;;12.40;;
64716;SDS011;51146;50.274;19.000;2022-09-17T17:29:04;13.00;;;9.27;;
64716;SDS011;51146;50.274;19.000;2022-09-17T17:31:30;11.85;;;9.05;;
64716;SDS011;51146;50.274;19.000;2022-09-17T17:33:57;14.77;;;10.57;;
64716;SDS011;51146;50.274;19.000;2022-09-17T17:36:24;14.25;;;9.57;;
64716;SDS011;51146;50.274;19.000;2022-09-17T17:38:57;14.00;;;9.45;;
64716;SDS011;51146;50.274;19.000;2022-09-17T17:41:25;13.60;;;10.18;;
64716;SDS011;51146;50.274;19.000;2022-09-17T17:43:54;16.88;;;11.43;;
64716;SDS011;51146;50.274;19.000;2022-09-17T17:46:22;24.73;;;20.67;;
64716;SDS011;51146;50.274;19.000;2022-09-17T17:48:50;57.72;;;38.13;;
64716;SDS011;51146;50.274;19.000;2022-09-17T17:51:18;31.38;;;19.95;;
64716;SDS011;51146;50.274;19.000;2022-09-17T17:53:45;41.88;;;29.23;;
64716;SDS011;51146;50.274;19.000;2022-09-17T17:56:12;16.50;;;12.07;;
64716;SDS011;51146;50.274;19.000;2022-09-17T17:58:39;11.75;;;8.63;;
64716;SDS011;51146;50.274;19.000;2022-09-17T18:01:11;12.60;;;8.40;;
64716;SDS011;51146;50.274;19.000;2022-09-17T18:03:44;18.92;;;11.23;;
64716;SDS011;51146;50.274;19.000;2022-09-17T18:06:11;13.90;;;9.00;;
64716;SDS011;51146;50.274;19.000;2022-09-17T18:08:39;10.93;;;7.70;;
64716;SDS011;51146;50.274;19.000;2022-09-17T18:11:08;9.82;;;7.63;;
64716;SDS011;51146;50.274;19.000;2022-09-17T18:13:37;29.55;;;19.27;;
64716;SDS011;51146;50.274;19.000;2022-09-17T18:16:06;10.40;;;8.57;;
64716;SDS011;51146;50.274;19.000;2022-09-17T18:18:37;13.30;;;10.65;;
64716;SDS011;51146;50.274;19.000;2022-09-17T18:21:11;12.88;;;6.75;;
64716;SDS011;51146;50.274;19.000;2022-09-17T18:23:41;10.38;;;7.50;;
64716;SDS011;51146;50.274;19.000;2022-09-17T18:26:10;24.17;;;18.38;;
64716;SDS011;51146;50.274;19.000;2022-09-17T18:28:42;11.32;;;9.20;;
64716;SDS011;51146;50.274;19.000;2022-09-17T18:31:17;14.93;;;12.45;;
64716;SDS011;51146;50.274;19.000;2022-09-17T18:33:48;12.80;;;10.57;;
64716;SDS011;51146;50.274;19.000;2022-09-17T18:36:19;14.63;;;10.07;;
64716;SDS011;51146;50.274;19.000;2022-09-17T18:38:46;11.75;;;8.30;;
64716;SDS011;51146;50.274;19.000;2022-09-17T18:41:13;7.97;;;5.53;;
64716;SDS011;51146;50.274;19.000;2022-09-17T18:43:40;8.18;;;5.18;;
64716;SDS011;51146;50.274;19.000;2022-09-17T18:46:08;7.35;;;4.90;;
64716;SDS011;51146;50.274;19.000;2022-09-17T18:48:35;10.18;;;5.43;;
64716;SDS011;51146;50.274;19.000;2022-09-17T18:51:06;8.10;;;5.53;;